Terminal Aerodrome Forecast
Issued by NWS

Home | Current Version | Previous Version | Text Only | Print | Product List | Glossary On
Versions: 1 2 3 4 5 6 7 8 9 10 11 12
000
FTUS45 KMSO 031731
TAFSMN
TAF
KSMN 031731Z 0318/0418 14005KT P6SM SKC
     FM032000 19009KT P6SM -SHRA VCTS BKN120CB
     FM032300 22012G20KT P6SM -TSRA BKN100CB BKN120
     FM040200 VRB06KT P6SM -RA BKN060 BKN100
      AMD LTD TO CLD VIS AND WIND=

USA.gov is the U.S. government's official web portal to all federal, state and local government web resources and services.